Aérodrome :
LOGIN :

S'inscrire | Disclaimer

   EN    FR    IT 

 










Légende :    VFR   VFR Marginal   IFR   IFR Intensif   IFR Très Intensif
Visi : 
Plafond : 
>= 8 km
>= 3000ft
5 à 8 km
1000 à 3000 ft
1500m à 5 km
500 à 1000 ft
800 à 1500m
200 à 500 ft
< 800m
< 200 ft
Symboles :   Orages  Brouillard  Fortes neiges  Fortes précipitations  Vent > 20 kt
SIGMETs :   Divers  Orages  Givrage  Turbulence  Onde Orograph.  Cendres Volcan.






- Altitude de l'aérodrome : 22 ft
- Code IATA : TUN


DTTA - Tunis Carthage

DERNIER METAR :
  • 141630Z 02010KT 350V050 9999 FEW026 28/19 Q1012

METARs EXPIRÉS :
  • 141600Z 36011KT 340V040 9999 FEW026 28/18 Q1012
  • 141530Z 01012KT 9999 FEW026 29/18 Q1012
  • 141500Z 02011KT 9999 FEW026 29/18 Q1012
  • 141430Z 01012KT 340V040 9999 FEW026 30/18 Q1012

TAF TAF DTTA
Valide du 14 à 12h jusqu'au 15 à 12h UTC


141100Z 1412/1512 01006KT 9999 FEW026
BECMG 1412/1414 04015KT
PROB30
TEMPO 1416/1419 -TS FEW030CB
BECMG 1419/1421 05004KT
BECMG 1423/1501 VRB03KT
BECMG 1507/1509 08006KT 9999 SCT026
PROB30
TEMPO 1509/1512 5000 -RA SCT026TCU



MET'MAP, la Météo Aéronautique d'un coup d'oeil ! - Copyright ORBIFLY Décembre 2007 - Disclaimer

ORBIFLY MET'MAP TEAM :

Programmation & Développement : Alexandra Zaïnal
Sur une idée originale de : Baudouin d'Aumeries
Assistance à la programmation : Marc-Olivier Méhu
Soutien technique & logistique : Manuel Goepfert

Contact : metmap@orbifly.com




SOURCES & CREDITS :

   NOAA